Terminal Aerodrome Forecast
Issued by NWS

Home | Current Version | Previous Version | Text Only | Print | Product List | Glossary On
Versions: 1 2 3 4 5 6 7 8 9 10 11 12 13 14 15 16 17 18 19 20 21 22 23 24 25 26 27 28 29 30
000
FTUS41 KBGM 011720
TAFELM
TAF
KELM 011720Z 0118/0218 10004KT P6SM OVC010
     FM012100 13006KT P6SM -SHRA OVC015
     FM020000 13005KT 5SM -SHRA BR OVC010
     FM020200 14007KT 3SM BR OVC008
      TEMPO 0202/0206 2SM -SHRA BR OVC003
     FM020600 15006KT 1 1/2SM -DZ BR OVC003
     FM021400 18006KT P6SM -DZ OVC015
     FM021700 19006KT P6SM BKN025=

USA.gov is the U.S. government's official web portal to all federal, state and local government web resources and services.